Airfield :
LOGIN :

Register | Disclaimer

   EN    FR    IT 

 










Legend :    VFR   Marginal VFR   IFR   Intensive IFR   Very Intensive IFR
Visi :
Ceiling :
>= 8 km
>= 3000ft
5 to 8 km
1000 to 3000 ft
1500m to 5 km
500 to 1000 ft
800 to 1500m
200 to 500 ft
< 800m
< 200 ft
Symbols :   Thunderstorms  Fog  Heavy snow  Heavy precipitations  Wind > 20 kt
SIGMETs :     Misc.  Thunderstorms  Icing  Turbulence  Mountain Waves  Volcanic Ashes






- Airport Elevation : 587 ft
- IATA code : XCR


LFOK - Chalons Vatry

CURRENT METAR :
  • 031400Z AUTO 30013KT 9999 FEW027 SCT040 BKN100 18/13 Q1023 NOSIG

EXPIRED METARs :
  • 031330Z AUTO 29016KT 9999 FEW024 SCT031 BKN046 18/13 Q1023 NOSIG
  • 031300Z AUTO 30013KT 9999 FEW025 SCT030 BKN035 18/14 Q1022 NOSIG
  • 031230Z AUTO 28017KT 9999 FEW017 BKN076 17/14 Q1022 NOSIG
  • 031200Z AUTO 29013KT 9999 BKN015/// BKN044/// BKN050/// ///TCU 17/15 Q1021 TEMPO 26020G35KT 4000 -SHRA BECMG SCT040
  • 031130Z AUTO 30012KT 9999 FEW006/// OVC040/// ///TCU 16/15 Q1020 TEMPO 26020G35KT 4000 -SHRA BECMG NSC

TAF TAF LFOK
Valid from the 03 at 12:00 until the 04 at 12:00 UTC


031100Z 0312/0412 22012KT 9999 SCT040
PROB30
TEMPO 0312/0313 26020G35KT 4000 -SHRA BKN014TCU BKN020
BECMG 0313/0315 28014KT
BECMG 0318/0321 24004KT



MET'MAP, your aeronautical weather chart ! - Copyright ORBIFLY December 2007 - Disclaimer

ORBIFLY MET'MAP TEAM :

Programming & Development : Alexandra Zaïnal
Original concept : Baudouin d'Aumeries
Technical & hardware support : Manuel Goepfert
Assistance : Marc-Olivier Méhu




SOURCES & CREDITS :

   NOAA